Time;durP1;ratioP1;P1;durP2;ratioP2;P2;SDS_P1;SDS_P2;PMS_P1;PMS_P2;Temp;Humidity;BMP_temperature;BMP_pressure;BME280_temperature;BME280_humidity;BME280_pressure;Samples;Min_cycle;Max_cycle;Signal;HPM_P1;HPM_P2
2023/07/09 00:02:44;;;;;;;9.57;5.53;;;;;;;22.10;100.00;101263.88;5114886;28;20444;-73
2023/07/09 00:05:30;;;;;;;13.23;5.30;;;;;;;22.25;100.00;101265.66;5114154;28;20038;-72
2023/07/09 00:08:28;;;;;;;21.95;5.90;;;;;;;22.20;100.00;101273.09;5114867;28;20019;-72
2023/07/09 00:11:16;;;;;;;14.18;6.10;;;;;;;22.22;100.00;101276.56;5099030;28;20019;-73
2023/07/09 00:14:01;;;;;;;8.23;5.20;;;;;;;22.52;100.00;101274.81;5114139;28;20024;-73
2023/07/09 00:16:48;;;;;;;11.65;5.50;;;;;;;22.47;100.00;101271.56;5099612;28;20019;-72
2023/07/09 00:19:33;;;;;;;11.82;5.97;;;;;;;22.32;100.00;101277.72;5114332;28;20043;-72
2023/07/09 00:22:20;;;;;;;8.43;5.43;;;;;;;22.09;100.00;101272.81;5114445;28;20088;-72
2023/07/09 00:25:07;;;;;;;20.30;6.40;;;;;;;22.13;100.00;101288.59;5113698;28;20110;-72
2023/07/09 00:27:53;;;;;;;14.48;5.85;;;;;;;21.95;100.00;101278.91;5100036;28;20360;-72
2023/07/09 00:30:38;;;;;;;12.00;5.22;;;;;;;22.12;100.00;101281.53;5114858;28;20038;-73
2023/07/09 00:33:31;;;;;;;8.27;5.50;;;;;;;21.70;100.00;101281.22;5114464;28;20032;-74
2023/07/09 00:36:32;;;;;;;9.93;5.43;;;;;;;21.74;100.00;101276.59;5114781;28;20019;-71
2023/07/09 00:39:23;;;;;;;10.38;5.35;;;;;;;21.76;100.00;101278.22;5114254;28;20028;-72
2023/07/09 00:42:18;;;;;;;10.63;5.07;;;;;;;21.45;100.00;101272.78;5113686;28;20096;-73
2023/07/09 00:45:17;;;;;;;8.45;5.30;;;;;;;21.46;100.00;101271.00;5115368;28;20341;-72
2023/07/09 00:48:13;;;;;;;12.43;5.35;;;;;;;21.14;100.00;101264.66;5114969;28;20413;-72
2023/07/09 00:50:59;;;;;;;9.32;5.07;;;;;;;21.22;100.00;101266.94;5098873;28;20016;-72
2023/07/09 00:53:46;;;;;;;9.73;4.82;;;;;;;21.44;100.00;101270.19;5114158;28;20023;-72
2023/07/09 00:56:40;;;;;;;19.20;5.70;;;;;;;21.42;100.00;134212.91;5113931;28;20041;-71
2023/07/09 00:59:29;;;;;;;8.93;4.70;;;;;;;21.42;100.00;101264.94;5114704;28;20394;-72
2023/07/09 01:02:15;;;;;;;8.02;5.03;;;;;;;21.09;100.00;101258.72;5113770;28;20105;-73
2023/07/09 01:05:02;;;;;;;11.68;5.57;;;;;;;21.49;100.00;101266.34;5114368;28;20110;-72
2023/07/09 01:07:48;;;;;;;19.55;5.68;;;;;;;21.39;100.00;101262.47;5114217;28;20086;-72
2023/07/09 01:10:34;;;;;;;7.95;5.10;;;;;;;21.41;100.00;101257.00;5115616;28;20422;-72
2023/07/09 01:13:19;;;;;;;7.45;5.15;;;;;;;21.48;100.00;101264.63;5116894;28;20020;-73
2023/07/09 01:16:05;;;;;;;9.98;5.45;;;;;;;21.56;100.00;101266.88;5121999;28;20019;-73
2023/07/09 01:18:51;;;;;;;9.25;4.90;;;;;;;-140.66;100.00;55571.53;5120594;28;20486;-73
2023/07/09 01:21:37;;;;;;;8.23;5.05;;;;;;;-140.66;100.00;55571.53;5104660;28;20027;-72
2023/07/09 01:24:49;;;;;;;9.00;4.72;;;;;;;-140.66;100.00;55571.53;5117555;28;20039;-72
2023/07/09 01:27:35;;;;;;;14.18;5.25;;;;;;;-140.66;100.00;55571.53;5117357;28;20035;-73
2023/07/09 01:30:25;;;;;;;6.93;4.80;;;;;;;-140.66;100.00;55571.53;5117654;28;20023;-73
2023/07/09 01:33:11;;;;;;;8.90;5.18;;;;;;;-140.66;100.00;55571.53;5121612;28;20044;-72
2023/07/09 01:36:00;;;;;;;11.10;4.93;;;;;;;-140.66;100.00;55571.53;5140409;28;20095;-73
2023/07/09 01:38:45;;;;;;;7.40;4.68;;;;;;;-140.66;100.00;55571.53;5135154;28;20024;-73
2023/07/09 01:41:34;;;;;;;8.40;4.63;;;;;;;-140.66;100.00;55571.53;5117031;28;20114;-73
2023/07/09 01:44:20;;;;;;;6.22;4.50;;;;;;;-140.66;100.00;55571.53;5117880;28;20063;-73
2023/07/09 01:47:06;;;;;;;9.32;4.43;;;;;;;-140.66;100.00;55571.53;5117540;28;20023;-73
2023/07/09 01:49:56;;;;;;;7.68;4.40;;;;;;;-140.66;100.00;55571.53;5103031;28;20028;-73
2023/07/09 01:52:44;;;;;;;10.02;4.88;;;;;;;-140.66;100.00;55571.53;5117574;28;20024;-73
2023/07/09 01:55:30;;;;;;;7.05;4.95;;;;;;;-140.66;100.00;55571.53;5117137;28;20039;-73
2023/07/09 01:58:16;;;;;;;8.95;5.50;;;;;;;-140.66;100.00;55571.53;5117356;28;20061;-73
2023/07/09 02:01:02;;;;;;;8.95;4.82;;;;;;;-140.66;100.00;55571.53;5116692;28;20459;-73
2023/07/09 02:03:48;;;;;;;9.13;4.65;;;;;;;-140.66;100.00;55571.53;5117509;28;20055;-73
2023/07/09 02:06:33;;;;;;;6.20;4.75;;;;;;;-140.66;100.00;55571.53;5118077;28;20084;-73
2023/07/09 02:09:19;;;;;;;15.43;5.32;;;;;;;-140.66;100.00;55571.53;5117280;28;20023;-73
2023/07/09 02:12:05;;;;;;;7.90;5.25;;;;;;;-140.66;100.00;55571.53;5117399;28;20038;-73
2023/07/09 02:14:51;;;;;;;9.60;5.30;;;;;;;-140.66;100.00;55571.53;5116591;28;20089;-73
2023/07/09 02:17:36;;;;;;;6.60;5.22;;;;;;;-140.66;100.00;55571.53;5103013;28;20065;-73
2023/07/09 02:20:22;;;;;;;9.85;5.30;;;;;;;-140.66;100.00;55571.53;5115671;28;20048;-73
2023/07/09 02:23:08;;;;;;;14.00;5.82;;;;;;;-140.66;100.00;55571.53;5116679;28;20321;-73
2023/07/09 02:25:54;;;;;;;8.57;5.25;;;;;;;-140.66;100.00;55571.53;5117054;28;20122;-73
2023/07/09 02:28:40;;;;;;;8.25;5.30;;;;;;;-140.66;100.00;55571.53;5101690;28;20042;-73
2023/07/09 02:31:29;;;;;;;8.90;5.47;;;;;;;-140.66;100.00;55571.53;5116552;28;20439;-73
2023/07/09 02:34:15;;;;;;;10.55;5.47;;;;;;;-140.66;100.00;55571.53;5116235;28;20028;-72
2023/07/09 02:37:01;;;;;;;7.38;5.07;;;;;;;-140.66;100.00;55571.53;5101839;28;20032;-73
2023/07/09 02:39:47;;;;;;;7.53;5.43;;;;;;;-140.66;100.00;55571.53;5116674;28;20077;-74
2023/07/09 02:42:33;;;;;;;9.65;5.53;;;;;;;-140.66;100.00;55571.53;5102476;28;20032;-73
2023/07/09 02:45:19;;;;;;;9.90;5.57;;;;;;;-140.66;100.00;55571.53;5115857;28;20023;-74
2023/07/09 02:48:05;;;;;;;7.22;4.95;;;;;;;-140.66;100.00;55571.53;5116440;28;20111;-73
2023/07/09 02:50:50;;;;;;;7.57;5.65;;;;;;;-140.66;100.00;55571.53;5116082;28;20099;-73
2023/07/09 02:53:36;;;;;;;12.80;6.10;;;;;;;-140.66;100.00;55571.53;5116286;28;20019;-73
2023/07/09 02:56:23;;;;;;;7.78;5.10;;;;;;;-140.66;100.00;55571.53;5116299;28;20023;-74
2023/07/09 02:59:09;;;;;;;8.68;5.40;;;;;;;-140.66;100.00;55571.53;5116880;28;20039;-74
2023/07/09 03:01:55;;;;;;;10.93;5.93;;;;;;;-140.66;100.00;55571.53;5115731;28;20039;-73
2023/07/09 03:04:41;;;;;;;10.98;5.07;;;;;;;-140.66;100.00;55571.53;5116698;28;20055;-73
2023/07/09 03:07:27;;;;;;;8.07;5.35;;;;;;;-140.66;100.00;55571.53;5100820;28;20111;-72
2023/07/09 03:10:12;;;;;;;8.02;5.30;;;;;;;-140.66;100.00;55571.53;5115489;28;20098;-73
2023/07/09 03:12:58;;;;;;;7.78;5.50;;;;;;;-140.66;100.00;55571.53;5114422;28;20035;-74
2023/07/09 03:15:56;;;;;;;10.60;5.43;;;;;;;-140.66;100.00;55571.53;5101112;28;20028;-74
2023/07/09 03:18:42;;;;;;;8.45;5.20;;;;;;;-140.66;100.00;55571.53;5114500;28;20111;-73
2023/07/09 03:21:28;;;;;;;9.32;5.78;;;;;;;-140.66;100.00;55571.53;5116131;28;20019;-73
2023/07/09 03:24:18;;;;;;;8.20;5.55;;;;;;;-140.66;100.00;55571.53;5114053;28;20091;-75
2023/07/09 03:27:04;;;;;;;7.47;5.35;;;;;;;-140.66;100.00;55571.53;5116073;28;20356;-72
2023/07/09 03:29:51;;;;;;;12.80;5.20;;;;;;;-140.66;100.00;55571.53;5086033;28;20048;-72
2023/07/09 03:32:37;;;;;;;8.13;5.68;;;;;;;-140.66;100.00;55571.53;5099706;28;20024;-73
2023/07/09 03:35:22;;;;;;;7.63;5.30;;;;;;;-140.66;100.00;55571.53;5115252;28;20467;-73
2023/07/09 03:38:10;;;;;;;7.53;5.47;;;;;;;-140.66;100.00;55571.53;5115307;28;20034;-73
2023/07/09 03:40:56;;;;;;;9.93;6.03;;;;;;;-140.66;100.00;55571.53;5100853;28;20042;-73
2023/07/09 03:43:42;;;;;;;8.93;5.07;;;;;;;-140.66;100.00;55571.53;5136188;28;20035;-73
2023/07/09 03:46:27;;;;;;;11.57;6.00;;;;;;;-140.66;100.00;55571.53;5118500;28;20015;-73
2023/07/09 03:49:13;;;;;;;11.68;6.20;;;;;;;-140.66;100.00;55571.53;5115801;28;20031;-73
2023/07/09 03:51:59;;;;;;;7.93;5.82;;;;;;;-140.66;100.00;55571.53;5115602;28;20061;-73
2023/07/09 03:54:44;;;;;;;9.82;5.72;;;;;;;-140.66;100.00;55571.53;5100134;28;20032;-74
2023/07/09 03:57:31;;;;;;;8.63;5.60;;;;;;;-140.66;100.00;55571.53;5114659;28;20092;-74
2023/07/09 04:00:17;;;;;;;11.10;5.90;;;;;;;-140.66;100.00;55571.53;5118334;28;20043;-73
2023/07/09 04:03:03;;;;;;;10.50;5.75;;;;;;;-140.66;100.00;55571.53;5123843;28;20028;-74
2023/07/09 04:05:49;;;;;;;13.35;6.53;;;;;;;-140.66;100.00;55571.53;5100779;28;20020;-73
2023/07/09 04:08:34;;;;;;;11.43;6.05;;;;;;;-140.66;100.00;55571.53;5115377;28;20035;-73
2023/07/09 04:11:20;;;;;;;8.85;6.47;;;;;;;-140.66;100.00;55571.53;5100237;28;20019;-73
2023/07/09 04:14:07;;;;;;;8.90;6.10;;;;;;;-140.66;100.00;55571.53;5114113;28;20170;-73
2023/07/09 04:16:53;;;;;;;13.00;6.53;;;;;;;-140.66;100.00;55571.53;5114716;28;20110;-73
2023/07/09 04:19:38;;;;;;;10.20;6.82;;;;;;;-140.66;100.00;55571.53;5114526;28;20379;-74
2023/07/09 04:22:24;;;;;;;10.52;6.35;;;;;;;-140.66;100.00;55571.53;5114429;28;20035;-73
2023/07/09 04:25:11;;;;;;;11.02;6.40;;;;;;;-140.66;100.00;55571.53;5114612;28;20034;-73
2023/07/09 04:27:57;;;;;;;8.45;6.40;;;;;;;-140.66;100.00;55571.53;5114746;28;20020;-73
2023/07/09 04:30:51;;;;;;;10.95;6.60;;;;;;;-140.66;100.00;55571.53;5114833;28;20444;-73
2023/07/09 04:33:36;;;;;;;10.23;6.43;;;;;;;-140.66;100.00;55571.53;5098843;28;20038;-73
2023/07/09 04:36:22;;;;;;;9.73;6.43;;;;;;;-140.66;100.00;55571.53;5114199;28;20031;-74
2023/07/09 04:39:08;;;;;;;11.10;6.60;;;;;;;-140.66;100.00;55571.53;5114546;28;20020;-74
2023/07/09 04:41:53;;;;;;;11.88;6.45;;;;;;;-140.66;100.00;55571.53;5113823;28;20112;-73
2023/07/09 04:44:40;;;;;;;8.30;6.53;;;;;;;-140.66;100.00;55571.53;5102134;28;20031;-73
2023/07/09 04:47:26;;;;;;;11.32;6.38;;;;;;;-140.66;100.00;55571.53;5118101;28;20024;-73
2023/07/09 04:50:11;;;;;;;15.60;6.68;;;;;;;-140.66;100.00;55571.53;5118884;28;20117;-73
2023/07/09 04:52:59;;;;;;;8.13;5.60;;;;;;;-140.66;100.00;55571.53;5118477;28;20337;-73
2023/07/09 04:55:44;;;;;;;12.70;6.03;;;;;;;-140.66;100.00;55571.53;5117970;28;20070;-73
2023/07/09 04:58:30;;;;;;;8.57;6.28;;;;;;;-140.66;100.00;55571.53;5118824;28;20182;-74
2023/07/09 05:01:16;;;;;;;10.65;6.22;;;;;;;-140.66;100.00;55571.53;5117420;28;20511;-74
2023/07/09 05:04:02;;;;;;;8.57;6.40;;;;;;;-140.66;100.00;55571.53;5117650;28;20456;-73
2023/07/09 05:06:47;;;;;;;9.15;5.85;;;;;;;-140.66;100.00;55571.53;5117563;28;20031;-73
2023/07/09 05:09:33;;;;;;;10.02;6.35;;;;;;;-140.66;100.00;55571.53;5118207;28;20028;-73
2023/07/09 05:12:20;;;;;;;11.75;6.10;;;;;;;-140.66;100.00;55571.53;5117597;28;20027;-73
2023/07/09 05:15:06;;;;;;;7.13;6.05;;;;;;;-140.66;100.00;55571.53;5103343;28;20024;-74
2023/07/09 05:17:52;;;;;;;9.40;6.25;;;;;;;-140.66;100.00;55571.53;5116646;28;20467;-74
2023/07/09 05:20:39;;;;;;;8.80;5.90;;;;;;;-140.66;100.00;55571.53;5117570;28;20047;-73
2023/07/09 05:23:25;;;;;;;9.90;6.35;;;;;;;-140.66;100.00;55571.53;5117068;28;20383;-73
2023/07/09 05:26:11;;;;;;;9.57;6.00;;;;;;;-140.66;100.00;55571.53;5118291;28;20019;-74
2023/07/09 05:28:57;;;;;;;12.20;7.10;;;;;;;-140.66;100.00;55571.53;5117640;28;20093;-73
2023/07/09 05:31:43;;;;;;;11.88;6.45;;;;;;;-140.66;100.00;55571.53;5102484;28;20027;-73
2023/07/09 05:34:29;;;;;;;10.82;6.53;;;;;;;-140.66;100.00;55571.53;5118020;28;20073;-74
2023/07/09 05:37:14;;;;;;;9.05;6.65;;;;;;;-140.66;100.00;55571.53;5117554;28;20137;-73
2023/07/09 05:40:00;;;;;;;8.60;6.93;;;;;;;-140.66;100.00;55571.53;5117685;28;20039;-73
2023/07/09 05:42:46;;;;;;;9.48;6.80;;;;;;;-140.66;100.00;55571.53;5103376;28;20031;-74
2023/07/09 05:45:32;;;;;;;9.82;7.43;;;;;;;-140.66;100.00;55571.53;5118087;28;20414;-73
2023/07/09 05:48:17;;;;;;;9.70;7.20;;;;;;;-140.66;100.00;55571.53;5117132;28;20144;-75
2023/07/09 05:51:03;;;;;;;9.75;7.18;;;;;;;-140.66;100.00;55571.53;5116017;28;20345;-73
2023/07/09 05:53:49;;;;;;;10.30;8.02;;;;;;;-140.66;100.00;55571.53;5117247;28;20100;-74
2023/07/09 05:56:35;;;;;;;12.23;8.30;;;;;;;-140.66;100.00;55571.53;5116157;28;20019;-73
2023/07/09 05:59:20;;;;;;;11.18;7.65;;;;;;;-140.66;100.00;55571.53;5116507;28;20051;-74
2023/07/09 06:02:14;;;;;;;12.82;8.38;;;;;;;-140.66;100.00;55571.53;5116588;28;20023;-74
2023/07/09 06:05:00;;;;;;;11.10;8.15;;;;;;;-140.66;100.00;55571.53;5117177;28;20023;-74
2023/07/09 06:07:47;;;;;;;10.07;8.75;;;;;;;-140.66;100.00;55571.53;5102956;28;20495;-73
2023/07/09 06:10:32;;;;;;;11.07;8.23;;;;;;;-140.66;100.00;55571.53;5120302;28;20051;-72
2023/07/09 06:13:20;;;;;;;11.32;7.57;;;;;;;-140.66;100.00;55571.53;5136364;27;20036;-74
2023/07/09 06:16:06;;;;;;;10.38;8.55;;;;;;;-140.66;100.00;55571.53;5101417;28;20019;-73
2023/07/09 06:18:52;;;;;;;11.70;8.63;;;;;;;-140.66;100.00;55571.53;5116830;28;20051;-73
2023/07/09 06:21:39;;;;;;;15.95;8.80;;;;;;;-140.66;100.00;55571.53;5102673;28;20074;-74
2023/07/09 06:24:24;;;;;;;11.88;8.75;;;;;;;-140.66;100.00;55571.53;5101704;28;20034;-74
2023/07/09 06:27:10;;;;;;;10.88;8.43;;;;;;;-140.66;100.00;55571.53;5115988;28;20024;-74
2023/07/09 06:29:56;;;;;;;13.02;8.80;;;;;;;-140.66;100.00;55571.53;5125989;28;20054;-74
2023/07/09 06:32:42;;;;;;;11.43;8.52;;;;;;;-140.66;100.00;55571.53;5122805;28;20037;-74
2023/07/09 06:35:27;;;;;;;13.07;8.23;;;;;;;-140.66;100.00;55571.53;5114900;28;20030;-74
2023/07/09 06:38:13;;;;;;;15.93;8.43;;;;;;;-140.66;100.00;55571.53;5115591;28;20103;-73
2023/07/09 06:40:59;;;;;;;10.73;7.70;;;;;;;-140.66;100.00;55571.53;5115347;28;20099;-74
2023/07/09 06:43:45;;;;;;;21.83;8.80;;;;;;;-140.66;100.00;55571.53;5115808;28;20024;-72
2023/07/09 06:46:31;;;;;;;10.68;7.97;;;;;;;-140.66;100.00;55571.53;5100471;28;20103;-73
2023/07/09 06:49:17;;;;;;;10.00;7.35;;;;;;;-140.66;100.00;55571.53;5116222;28;20031;-74
2023/07/09 06:52:03;;;;;;;10.48;7.28;;;;;;;-140.66;100.00;55571.53;5102378;28;20023;-73
2023/07/09 06:54:49;;;;;;;9.75;7.20;;;;;;;-140.66;100.00;55571.53;5117208;28;20356;-74
2023/07/09 06:57:34;;;;;;;9.60;7.03;;;;;;;-140.66;100.00;55571.53;5116313;28;20106;-74
2023/07/09 07:00:20;;;;;;;8.73;6.68;;;;;;;-140.66;100.00;55571.53;5115907;28;20498;-73
2023/07/09 07:03:06;;;;;;;11.85;6.30;;;;;;;-140.66;100.00;55571.53;5115161;28;20023;-73
2023/07/09 07:05:57;;;;;;;10.75;6.60;;;;;;;-140.66;100.00;55571.53;5115658;28;20448;-74
2023/07/09 07:08:43;;;;;;;7.95;6.03;;;;;;;-140.66;100.00;55571.53;5115672;28;20105;-74
2023/07/09 07:11:30;;;;;;;9.18;6.35;;;;;;;-140.66;100.00;55571.53;5100647;28;20467;-74
2023/07/09 07:14:16;;;;;;;9.30;5.50;;;;;;;-140.66;100.00;55571.53;5114568;28;20035;-73
2023/07/09 07:17:02;;;;;;;7.78;5.30;;;;;;;-140.66;100.00;55571.53;5100824;28;20411;-74
2023/07/09 07:19:50;;;;;;;7.15;5.50;;;;;;;-140.66;100.00;55571.53;5115800;28;20051;-74
2023/07/09 07:22:36;;;;;;;7.45;5.30;;;;;;;-140.66;100.00;55571.53;5099862;28;20023;-74
2023/07/09 07:25:22;;;;;;;6.85;5.00;;;;;;;-140.66;100.00;55571.53;5115228;28;20031;-74
2023/07/09 07:28:08;;;;;;;8.15;5.03;;;;;;;-140.66;100.00;55571.53;5115571;28;20356;-74
2023/07/09 07:31:02;;;;;;;8.10;4.70;;;;;;;-140.66;100.00;55571.53;5113186;28;20042;-73
2023/07/09 07:33:47;;;;;;;5.88;4.85;;;;;;;-140.66;100.00;55571.53;5115069;28;20495;-74
2023/07/09 07:36:33;;;;;;;5.85;3.60;;;;;;;-140.66;100.00;55571.53;5114641;28;20479;-74
2023/07/09 07:39:19;;;;;;;8.43;3.90;;;;;;;-140.66;100.00;55571.53;5114759;28;20459;-73
2023/07/09 07:42:05;;;;;;;6.28;3.80;;;;;;;-140.66;100.00;55571.53;5114677;28;20483;-74
2023/07/09 07:44:52;;;;;;;4.60;3.80;;;;;;;-140.66;100.00;55571.53;5114809;28;20465;-74
2023/07/09 07:47:39;;;;;;;8.52;4.32;;;;;;;-140.66;100.00;55571.53;5114749;28;20089;-73
2023/07/09 07:50:24;;;;;;;5.90;4.15;;;;;;;-140.66;100.00;55571.53;5114683;28;20379;-73
2023/07/09 07:53:10;;;;;;;9.80;4.30;;;;;;;-140.66;100.00;55571.53;5114962;28;20400;-73
2023/07/09 07:55:57;;;;;;;7.18;3.70;;;;;;;-140.66;100.00;55571.53;5114364;28;20081;-74
2023/07/09 07:58:43;;;;;;;6.20;4.10;;;;;;;-140.66;100.00;55571.53;5115136;28;20443;-73
2023/07/09 08:01:29;;;;;;;6.05;3.95;;;;;;;-140.66;100.00;55571.53;5114527;28;20114;-73
2023/07/09 08:04:15;;;;;;;5.78;3.75;;;;;;;-140.66;100.00;55571.53;5100332;28;20023;-73
2023/07/09 08:07:01;;;;;;;4.45;3.75;;;;;;;-140.66;100.00;55571.53;5114392;28;20020;-73
2023/07/09 08:09:47;;;;;;;7.93;3.70;;;;;;;-140.66;100.00;55571.53;5114005;28;20023;-73
2023/07/09 08:12:33;;;;;;;5.75;4.07;;;;;;;-140.66;100.00;55571.53;5114571;28;20042;-74
2023/07/09 08:15:19;;;;;;;5.53;3.53;;;;;;;-140.66;100.00;55571.53;5113583;28;20125;-73
2023/07/09 08:18:05;;;;;;;8.00;3.80;;;;;;;-140.66;100.00;55571.53;5113537;28;20027;-73
2023/07/09 08:20:50;;;;;;;6.50;3.70;;;;;;;-140.66;100.00;55571.53;5113767;28;20051;-73
2023/07/09 08:23:36;;;;;;;6.55;3.33;;;;;;;-140.66;100.00;55571.53;5114770;28;20096;-73
2023/07/09 08:26:23;;;;;;;4.47;3.15;;;;;;;-140.66;100.00;55571.53;5113424;28;20031;-74
2023/07/09 08:29:09;;;;;;;4.75;3.10;;;;;;;-140.66;100.00;55571.53;5099673;28;20031;-74
2023/07/09 08:31:55;;;;;;;3.10;2.50;;;;;;;-140.66;100.00;55571.53;5114290;28;20023;-74
2023/07/09 08:34:42;;;;;;;13.68;3.13;;;;;;;-140.66;100.00;55571.53;5100625;28;20055;-74
2023/07/09 08:37:27;;;;;;;3.67;2.50;;;;;;;-140.66;100.00;55571.53;5114332;28;20030;-73
2023/07/09 08:40:15;;;;;;;5.30;2.55;;;;;;;-140.66;100.00;55571.53;5113900;28;20034;-74
2023/07/09 08:43:11;;;;;;;4.82;2.90;;;;;;;-140.66;100.00;55571.53;5113713;28;20031;-73
2023/07/09 08:46:17;;;;;;;5.82;2.92;;;;;;;-140.66;100.00;55571.53;5114332;28;20032;-74
2023/07/09 08:49:14;;;;;;;4.55;2.97;;;;;;;-140.66;100.00;55571.53;5099809;28;20024;-74
2023/07/09 08:52:00;;;;;;;4.22;2.85;;;;;;;-140.66;100.00;55571.53;5114003;28;20055;-74
2023/07/09 08:54:49;;;;;;;4.97;2.72;;;;;;;-140.66;100.00;55571.53;5114555;28;20024;-73
2023/07/09 08:57:39;;;;;;;3.00;2.67;;;;;;;-140.66;100.00;55571.53;5114253;28;20023;-73
2023/07/09 09:00:37;;;;;;;3.28;2.70;;;;;;;-140.66;100.00;55571.53;5113910;28;20027;-74
2023/07/09 09:03:37;;;;;;;3.30;2.72;;;;;;;-140.66;100.00;55571.53;5114096;28;20107;-74
2023/07/09 09:06:29;;;;;;;4.97;2.40;;;;;;;-140.66;100.00;55571.53;5117751;28;20028;-73
2023/07/09 09:09:33;;;;;;;3.42;2.45;;;;;;;-140.66;100.00;55571.53;5119702;28;20026;-74
2023/07/09 09:12:27;;;;;;;3.97;2.63;;;;;;;-140.66;100.00;55571.53;5114173;28;20023;-74
2023/07/09 09:15:17;;;;;;;2.90;2.40;;;;;;;-140.66;100.00;55571.53;5113880;28;20408;-73
2023/07/09 09:18:30;;;;;;;3.65;2.47;;;;;;;-140.66;100.00;55571.53;5112527;28;20019;-74
2023/07/09 09:21:27;;;;;;;5.80;2.60;;;;;;;-140.66;100.00;55571.53;5112998;28;20039;-73
2023/07/09 09:24:19;;;;;;;5.82;2.60;;;;;;;-140.66;100.00;55571.53;5113876;28;20036;-74
2023/07/09 09:27:05;;;;;;;3.30;2.58;;;;;;;-140.66;100.00;55571.53;5098678;28;20031;-74
2023/07/09 09:29:50;;;;;;;4.07;2.60;;;;;;;-140.66;100.00;55571.53;5098947;28;20015;-73
2023/07/09 09:32:43;;;;;;;3.53;2.25;;;;;;;-140.66;100.00;55571.53;5117023;28;20027;-74
2023/07/09 09:35:34;;;;;;;4.68;2.40;;;;;;;-140.66;100.00;55571.53;5120604;28;20024;-73
2023/07/09 09:38:22;;;;;;;3.58;2.50;;;;;;;-140.66;100.00;55571.53;5117017;28;20407;-73
2023/07/09 09:41:16;;;;;;;3.08;2.45;;;;;;;-140.66;100.00;55571.53;5119008;28;20024;-74
2023/07/09 09:44:02;;;;;;;5.38;2.50;;;;;;;-140.66;100.00;55571.53;5116867;28;20422;-74
2023/07/09 09:46:50;;;;;;;4.68;2.40;;;;;;;-140.66;100.00;55571.53;5117424;28;20506;-73
2023/07/09 09:49:43;;;;;;;3.95;2.50;;;;;;;-140.66;100.00;55571.53;5117204;28;20459;-74
2023/07/09 09:52:33;;;;;;;2.90;2.47;;;;;;;-140.66;100.00;55571.53;5102619;28;20028;-73
2023/07/09 09:55:25;;;;;;;6.90;2.80;;;;;;;-140.66;100.00;55571.53;5116663;28;20027;-73
2023/07/09 09:58:14;;;;;;;3.38;2.80;;;;;;;-140.66;100.00;55571.53;5115911;28;20024;-74
2023/07/09 10:01:00;;;;;;;2.90;2.60;;;;;;;-140.66;100.00;55571.53;5100656;28;20117;-74
2023/07/09 10:03:54;;;;;;;5.95;3.03;;;;;;;-140.66;100.00;55571.53;5101671;28;20027;-73
2023/07/09 10:07:05;;;;;;;5.50;2.40;;;;;;;-140.66;100.00;55571.53;5116620;28;20035;-74
2023/07/09 10:09:54;;;;;;;2.83;2.45;;;;;;;-140.66;100.00;55571.53;5115944;28;20023;-73
2023/07/09 10:12:47;;;;;;;2.75;2.28;;;;;;;-140.66;100.00;55571.53;5123238;28;20015;-73
2023/07/09 10:15:49;;;;;;;3.05;2.42;;;;;;;-140.66;100.00;55571.53;5112696;28;20031;-74
2023/07/09 10:19:04;;;;;;;4.15;2.10;;;;;;;-140.66;100.00;55571.53;5117377;28;20019;-73
2023/07/09 10:22:11;;;;;;;3.92;2.60;;;;;;;-140.66;100.00;55571.53;5117335;28;20035;-74
2023/07/09 10:25:02;;;;;;;3.90;2.63;;;;;;;-140.66;100.00;55571.53;5103691;28;20475;-73
2023/07/09 10:27:59;;;;;;;4.35;2.40;;;;;;;-140.66;100.00;55571.53;5116641;28;20027;-73
2023/07/09 10:31:00;;;;;;;3.67;2.30;;;;;;;-140.66;100.00;55571.53;5101175;28;20364;-73
2023/07/09 10:33:51;;;;;;;6.20;2.20;;;;;;;-140.66;100.00;55571.53;5116864;28;20034;-74
2023/07/09 10:37:08;;;;;;;3.85;2.45;;;;;;;-140.66;100.00;55571.53;5115961;28;20026;-74
2023/07/09 10:39:58;;;;;;;4.03;2.35;;;;;;;-140.66;100.00;55571.53;5115621;28;20513;-73
2023/07/09 10:42:48;;;;;;;3.72;2.50;;;;;;;-140.66;100.00;55571.53;5115838;28;20035;-74
2023/07/09 10:45:42;;;;;;;3.78;2.20;;;;;;;-140.66;100.00;55571.53;5116562;28;20089;-74
2023/07/09 10:48:54;;;;;;;2.53;2.30;;;;;;;-140.66;100.00;55571.53;5116143;28;20110;-73
2023/07/09 10:51:48;;;;;;;4.53;2.33;;;;;;;-140.66;100.00;55571.53;5116250;28;20027;-75
2023/07/09 10:54:49;;;;;;;6.80;2.35;;;;;;;-140.66;100.00;55571.53;5116557;28;20460;-73
2023/07/09 10:57:59;;;;;;;4.25;2.40;;;;;;;-140.66;100.00;55571.53;5115865;28;20096;-73
2023/07/09 11:00:45;;;;;;;5.53;2.95;;;;;;;-140.66;100.00;55571.53;5113979;28;20456;-73
2023/07/09 11:03:57;;;;;;;4.45;2.35;;;;;;;-140.66;100.00;55571.53;5114979;28;20368;-74
2023/07/09 11:06:47;;;;;;;5.40;2.40;;;;;;;-140.66;100.00;55571.53;5115143;28;20351;-74
2023/07/09 11:09:37;;;;;;;3.15;2.10;;;;;;;-140.66;100.00;55571.53;5115249;28;20440;-74
2023/07/09 11:12:28;;;;;;;3.35;2.15;;;;;;;-140.66;100.00;55571.53;5101050;28;20129;-73
2023/07/09 11:15:18;;;;;;;3.95;1.90;;;;;;;-140.66;100.00;55571.53;5115494;28;20055;-73
2023/07/09 11:18:06;;;;;;;3.22;2.08;;;;;;;-140.66;100.00;55571.53;5114774;28;20030;-73
2023/07/09 11:21:13;;;;;;;2.90;2.08;;;;;;;-140.66;100.00;55571.53;5114594;28;20395;-74
2023/07/09 11:24:00;;;;;;;3.72;2.10;;;;;;;-140.66;100.00;55571.53;5116291;28;20435;-74
2023/07/09 11:26:48;;;;;;;6.75;2.30;;;;;;;-140.66;100.00;55571.53;5114914;28;20168;-74
2023/07/09 11:29:45;;;;;;;2.40;1.95;;;;;;;-140.66;100.00;55571.53;5114819;28;20035;-74
2023/07/09 11:32:31;;;;;;;4.38;2.40;;;;;;;-140.66;100.00;55571.53;5114947;28;20032;-74
2023/07/09 11:35:25;;;;;;;3.38;2.00;;;;;;;-140.66;100.00;55571.53;5115003;28;20023;-74
2023/07/09 11:38:19;;;;;;;2.88;2.22;;;;;;;-140.66;100.00;55571.53;5115009;28;20084;-73
2023/07/09 11:41:46;;;;;;;2.20;1.90;;;;;;;-140.66;100.00;55571.53;5114427;28;20046;-73
2023/07/09 11:44:33;;;;;;;2.67;2.00;;;;;;;-140.66;100.00;55571.53;5113749;28;20035;-74
2023/07/09 11:47:23;;;;;;;9.48;2.67;;;;;;;-140.66;100.00;55571.53;5115146;28;20055;-73
2023/07/09 11:50:22;;;;;;;3.47;2.13;;;;;;;-140.66;100.00;55571.53;5114278;28;20027;-73
2023/07/09 11:53:11;;;;;;;5.03;2.60;;;;;;;-140.66;100.00;55571.53;5099414;28;20031;-73
2023/07/09 11:55:56;;;;;;;10.65;2.72;;;;;;;-140.66;100.00;55571.53;5114190;28;20460;-75
2023/07/09 11:58:54;;;;;;;5.45;2.78;;;;;;;-140.66;100.00;55571.53;5114487;28;20118;-73
2023/07/09 12:01:45;;;;;;;7.50;2.53;;;;;;;-140.66;100.00;55571.53;5114598;28;20016;-73
2023/07/09 12:04:35;;;;;;;3.42;2.60;;;;;;;-140.66;100.00;55571.53;5114988;28;20454;-73
2023/07/09 12:07:23;;;;;;;3.40;2.70;;;;;;;-140.66;100.00;55571.53;5114491;28;20028;-74
2023/07/09 12:10:19;;;;;;;3.55;2.40;;;;;;;-140.66;100.00;55571.53;5114248;28;20019;-73
2023/07/09 12:13:05;;;;;;;3.33;2.60;;;;;;;-140.66;100.00;55571.53;5113750;28;20038;-73
2023/07/09 12:15:51;;;;;;;5.65;2.83;;;;;;;-140.66;100.00;55571.53;5113254;28;20463;-74
2023/07/09 12:18:38;;;;;;;3.00;2.35;;;;;;;-140.66;100.00;55571.53;5099312;28;20032;-74
2023/07/09 12:21:25;;;;;;;6.97;2.58;;;;;;;-140.66;100.00;55571.53;5114132;28;20340;-73
2023/07/09 12:24:24;;;;;;;6.07;2.78;;;;;;;-140.66;100.00;55571.53;5113711;28;20031;-75
2023/07/09 12:27:28;;;;;;;2.60;2.40;;;;;;;-140.66;100.00;55571.53;5114617;28;20027;-73
2023/07/09 12:30:14;;;;;;;6.70;2.60;;;;;;;-140.66;100.00;55571.53;5098557;28;20104;-73
2023/07/09 12:33:00;;;;;;;4.88;2.65;;;;;;;-140.66;100.00;55571.53;5114100;28;20027;-73
2023/07/09 12:35:55;;;;;;;7.07;2.70;;;;;;;-140.66;100.00;55571.53;5113663;28;20034;-73
2023/07/09 12:38:44;;;;;;;12.00;2.67;;;;;;;-140.66;100.00;55571.53;5114376;28;20115;-74
2023/07/09 12:41:42;;;;;;;3.13;2.60;;;;;;;-140.66;100.00;55571.53;5113567;28;20337;-74
2023/07/09 12:44:34;;;;;;;7.38;3.10;;;;;;;-140.66;100.00;55571.53;5114050;28;20019;-73
2023/07/09 12:47:23;;;;;;;4.35;2.90;;;;;;;-140.66;100.00;55571.53;5099919;28;20107;-74